Time;durP1;ratioP1;P1;durP2;ratioP2;P2;SDS_P1;SDS_P2;PMS_P1;PMS_P2;Temp;Humidity;BMP_temperature;BMP_pressure;BME280_temperature;BME280_humidity;BME280_pressure;Samples;Min_cycle;Max_cycle;Signal;HPM_P1;HPM_P2
2021/07/11 00:01:15;;;;;;;4.13;1.67;;;;;;;;;;5062453;28;20067;-75
2021/07/11 00:03:41;;;;;;;3.90;1.80;;;;;;;;;;5057601;28;20538;-75
2021/07/11 00:06:08;;;;;;;3.88;1.80;;;;;;;;;;5054175;28;20118;-75
2021/07/11 00:08:34;;;;;;;3.05;1.80;;;;;;;;;;5061654;28;20064;-74
2021/07/11 00:11:00;;;;;;;2.40;1.45;;;;;;;;;;5060403;28;20125;-74
2021/07/11 00:13:27;;;;;;;3.40;1.65;;;;;;;;;;5061127;28;20049;-74
2021/07/11 00:15:54;;;;;;;3.03;2.00;;;;;;;;;;5062177;28;20049;-75
2021/07/11 00:18:20;;;;;;;2.58;1.63;;;;;;;;;;5060939;28;20075;-75
2021/07/11 00:20:47;;;;;;;3.65;1.60;;;;;;;;;;5055009;28;20056;-75
2021/07/11 00:23:13;;;;;;;3.03;1.95;;;;;;;;;;5053409;28;20060;-76
2021/07/11 00:25:40;;;;;;;3.97;1.67;;;;;;;;;;5036634;28;20508;-75
2021/07/11 00:28:06;;;;;;;2.80;1.88;;;;;;;;;;5038083;28;20061;-76
2021/07/11 00:30:33;;;;;;;2.20;1.70;;;;;;;;;;5063558;28;20060;-77
2021/07/11 00:32:59;;;;;;;3.80;1.85;;;;;;;;;;5059572;28;20117;-76
2021/07/11 00:35:25;;;;;;;2.58;1.42;;;;;;;;;;5059788;28;20122;-74
2021/07/11 00:37:52;;;;;;;3.78;1.90;;;;;;;;;;5048895;28;20061;-75
2021/07/11 00:40:19;;;;;;;2.92;1.60;;;;;;;;;;5065461;28;20110;-75
2021/07/11 00:42:45;;;;;;;2.53;1.77;;;;;;;;;;5059229;28;20061;-77
2021/07/11 00:45:12;;;;;;;3.50;1.50;;;;;;;;;;5053636;28;20036;-74
2021/07/11 00:47:39;;;;;;;3.17;2.05;;;;;;;;;;5053429;28;20067;-75
2021/07/11 00:50:07;;;;;;;3.95;2.20;;;;;;;;;;5064753;28;20072;-77
2021/07/11 00:52:34;;;;;;;2.88;2.08;;;;;;;;;;5050623;28;20064;-77
2021/07/11 00:55:00;;;;;;;4.18;2.10;;;;;;;;;;5053797;28;20060;-76
2021/07/11 00:57:26;;;;;;;3.90;2.35;;;;;;;;;;5058161;28;20110;-75
2021/07/11 00:59:53;;;;;;;3.30;2.10;;;;;;;;;;5034360;28;20061;-75
2021/07/11 01:02:23;;;;;;;3.45;2.10;;;;;;;;;;5056743;28;20032;-77
2021/07/11 01:05:03;;;;;;;3.78;2.25;;;;;;;;;;5051174;28;20067;-76
2021/07/11 01:07:32;;;;;;;3.13;2.45;;;;;;;;;;5050281;28;20493;-76
2021/07/11 01:10:04;;;;;;;4.82;2.20;;;;;;;;;;5063830;28;20128;-76
2021/07/11 01:12:32;;;;;;;3.58;2.45;;;;;;;;;;5040454;28;20518;-75
2021/07/11 01:15:00;;;;;;;3.92;2.33;;;;;;;;;;5064446;28;20060;-76
2021/07/11 01:17:27;;;;;;;4.88;2.63;;;;;;;;;;5056351;28;20061;-76
2021/07/11 01:20:03;;;;;;;3.63;2.17;;;;;;;;;;5056998;28;20098;-76
2021/07/11 01:22:35;;;;;;;3.60;2.20;;;;;;;;;;5063147;28;20056;-75
2021/07/11 01:25:09;;;;;;;3.45;2.30;;;;;;;;;;5060144;28;20247;-75
2021/07/11 01:27:36;;;;;;;3.55;2.30;;;;;;;;;;5059905;28;20064;-75
2021/07/11 01:30:05;;;;;;;4.10;2.10;;;;;;;;;;5052353;28;20114;-76
2021/07/11 01:32:31;;;;;;;3.10;2.50;;;;;;;;;;5059173;28;20056;-75
2021/07/11 01:35:00;;;;;;;3.00;2.03;;;;;;;;;;5055728;28;20056;-75
2021/07/11 01:37:27;;;;;;;4.20;2.50;;;;;;;;;;5056119;28;20068;-75
2021/07/11 01:39:54;;;;;;;4.20;2.50;;;;;;;;;;5037701;28;20083;-77
2021/07/11 01:42:21;;;;;;;3.60;2.40;;;;;;;;;;5058630;28;20060;-77
2021/07/11 01:44:49;;;;;;;3.55;1.98;;;;;;;;;;5062793;28;20060;-76
2021/07/11 01:47:15;;;;;;;4.05;2.35;;;;;;;;;;5059333;28;20061;-77
2021/07/11 01:49:42;;;;;;;3.22;2.08;;;;;;;;;;5056768;28;20130;-75
2021/07/11 01:52:08;;;;;;;3.10;2.20;;;;;;;;;;5056036;28;20496;-75
2021/07/11 01:54:35;;;;;;;4.00;2.28;;;;;;;;;;5054533;28;20065;-76
2021/07/11 01:57:02;;;;;;;3.67;2.20;;;;;;;;;;5053312;28;20052;-75
2021/07/11 01:59:28;;;;;;;2.78;2.30;;;;;;;;;;5052766;28;20049;-75
2021/07/11 02:02:03;;;;;;;2.92;2.20;;;;;;;;;;5055876;28;20068;-75
2021/07/11 02:04:30;;;;;;;3.78;2.20;;;;;;;;;;5052285;28;20555;-76
2021/07/11 02:06:56;;;;;;;5.13;2.25;;;;;;;;;;5056263;28;20064;-76
2021/07/11 02:09:23;;;;;;;3.15;2.17;;;;;;;;;;5061166;28;20072;-76
2021/07/11 02:11:49;;;;;;;2.22;1.60;;;;;;;;;;5047176;28;20068;-76
2021/07/11 02:14:21;;;;;;;3.40;2.20;;;;;;;;;;5062992;28;20122;-75
2021/07/11 02:16:49;;;;;;;4.45;1.95;;;;;;;;;;5033053;28;20114;-76
2021/07/11 02:19:17;;;;;;;2.90;2.15;;;;;;;;;;5040866;28;20052;-75
2021/07/11 02:21:43;;;;;;;2.70;1.90;;;;;;;;;;5057663;28;20050;-76
2021/07/11 02:24:10;;;;;;;3.10;2.10;;;;;;;;;;5056337;28;20510;-75
2021/07/11 02:26:38;;;;;;;2.88;2.05;;;;;;;;;;5061929;28;20091;-76
2021/07/11 02:29:05;;;;;;;3.03;2.03;;;;;;;;;;5052090;28;22323;-77
2021/07/11 02:31:35;;;;;;;2.95;2.03;;;;;;;;;;5052111;28;20452;-74
2021/07/11 02:34:02;;;;;;;2.85;2.10;;;;;;;;;;5059881;28;20056;-75
2021/07/11 02:36:29;;;;;;;2.60;2.20;;;;;;;;;;5056941;28;20102;-77
2021/07/11 02:38:55;;;;;;;3.38;1.95;;;;;;;;;;5054704;28;20525;-74
2021/07/11 02:41:23;;;;;;;3.30;2.10;;;;;;;;;;5048626;28;20113;-74
2021/07/11 02:43:51;;;;;;;3.22;2.42;;;;;;;;;;5040039;28;20056;-76
2021/07/11 02:46:19;;;;;;;3.30;2.00;;;;;;;;;;5051249;28;20114;-75
2021/07/11 02:48:46;;;;;;;3.97;2.20;;;;;;;;;;5052741;28;20067;-75
2021/07/11 02:51:15;;;;;;;3.35;2.30;;;;;;;;;;5056303;28;20052;-75
2021/07/11 02:53:43;;;;;;;4.63;2.00;;;;;;;;;;5052456;28;20088;-76
2021/07/11 02:56:11;;;;;;;2.50;2.08;;;;;;;;;;5059351;28;20057;-76
2021/07/11 02:58:38;;;;;;;3.30;1.70;;;;;;;;;;5058819;28;20071;-76
2021/07/11 03:01:05;;;;;;;3.13;1.90;;;;;;;;;;5052363;28;20078;-74
2021/07/11 03:03:31;;;;;;;3.50;1.55;;;;;;;;;;5058836;28;20060;-74
2021/07/11 03:05:58;;;;;;;2.42;1.88;;;;;;;;;;5058489;28;20449;-76
2021/07/11 03:08:24;;;;;;;2.85;2.17;;;;;;;;;;5058263;28;20067;-75
2021/07/11 03:10:51;;;;;;;3.15;1.83;;;;;;;;;;5060537;28;20056;-78
2021/07/11 03:13:18;;;;;;;3.38;2.00;;;;;;;;;;5062672;28;20057;-76
2021/07/11 03:15:44;;;;;;;2.70;2.00;;;;;;;;;;5062232;28;20052;-75
2021/07/11 03:18:12;;;;;;;3.20;2.10;;;;;;;;;;5044267;28;20033;-75
2021/07/11 03:20:39;;;;;;;2.75;1.88;;;;;;;;;;5053516;28;20056;-75
2021/07/11 03:23:06;;;;;;;3.33;1.90;;;;;;;;;;5036292;28;20067;-75
2021/07/11 03:25:33;;;;;;;3.00;1.80;;;;;;;;;;5057483;28;20071;-74
2021/07/11 03:28:05;;;;;;;4.25;1.73;;;;;;;;;;5060592;28;20060;-76
2021/07/11 03:30:36;;;;;;;2.50;1.60;;;;;;;;;;5041913;28;20568;-75
2021/07/11 03:33:03;;;;;;;3.22;1.77;;;;;;;;;;5037646;28;20209;-76
2021/07/11 03:35:34;;;;;;;3.13;1.73;;;;;;;;;;5054260;28;20099;-77
2021/07/11 03:38:01;;;;;;;2.30;1.70;;;;;;;;;;5048060;28;20210;-75
2021/07/11 03:40:29;;;;;;;2.50;1.67;;;;;;;;;;5055701;28;20638;-75
2021/07/11 03:42:57;;;;;;;3.88;1.88;;;;;;;;;;5057495;28;20526;-75
2021/07/11 03:45:24;;;;;;;2.67;1.75;;;;;;;;;;5055887;28;20514;-74
2021/07/11 03:47:58;;;;;;;2.15;1.70;;;;;;;;;;5053183;28;20029;-75
2021/07/11 03:50:24;;;;;;;2.47;1.65;;;;;;;;;;5041563;28;20111;-74
2021/07/11 03:52:54;;;;;;;2.53;1.88;;;;;;;;;;5062002;28;20067;-75
2021/07/11 03:55:21;;;;;;;2.17;1.60;;;;;;;;;;5062724;28;20333;-74
2021/07/11 03:57:48;;;;;;;4.65;1.90;;;;;;;;;;5045866;28;20056;-76
2021/07/11 04:00:18;;;;;;;2.70;1.77;;;;;;;;;;5066205;28;20105;-74
2021/07/11 04:02:46;;;;;;;1.90;1.35;;;;;;;;;;5055222;28;20128;-75
2021/07/11 04:05:13;;;;;;;2.20;1.70;;;;;;;;;;5061703;28;20052;-75
2021/07/11 04:07:41;;;;;;;3.15;1.70;;;;;;;;;;5054773;28;20499;-75
2021/07/11 04:10:07;;;;;;;3.20;1.70;;;;;;;;;;5061636;28;20225;-75
2021/07/11 04:12:35;;;;;;;3.13;1.60;;;;;;;;;;5053376;28;20056;-75
2021/07/11 04:15:03;;;;;;;3.47;1.75;;;;;;;;;;5064317;28;20040;-76
2021/07/11 04:17:31;;;;;;;3.22;1.67;;;;;;;;;;5064203;28;20067;-77
2021/07/11 04:19:59;;;;;;;3.15;1.70;;;;;;;;;;5064570;28;20127;-76
2021/07/11 04:22:26;;;;;;;3.17;1.65;;;;;;;;;;5057342;28;20057;-74
2021/07/11 04:24:54;;;;;;;2.72;1.65;;;;;;;;;;5061748;28;20494;-75
2021/07/11 04:27:21;;;;;;;2.97;1.60;;;;;;;;;;5042330;28;20041;-75
2021/07/11 04:29:49;;;;;;;2.78;1.50;;;;;;;;;;5056340;28;20189;-76
2021/07/11 04:32:15;;;;;;;2.17;1.55;;;;;;;;;;5057080;28;20596;-77
2021/07/11 04:34:42;;;;;;;2.03;1.60;;;;;;;;;;5056270;28;20052;-77
2021/07/11 04:37:11;;;;;;;2.25;1.48;;;;;;;;;;5058228;28;20060;-76
2021/07/11 04:39:38;;;;;;;1.98;1.55;;;;;;;;;;5062170;28;20049;-77
2021/07/11 04:42:04;;;;;;;1.90;1.60;;;;;;;;;;5051962;28;20049;-74
2021/07/11 04:44:31;;;;;;;1.88;1.50;;;;;;;;;;5060401;28;20090;-75
2021/07/11 04:46:58;;;;;;;2.95;1.40;;;;;;;;;;5065650;28;20118;-75
2021/07/11 04:49:25;;;;;;;2.65;1.70;;;;;;;;;;5059671;28;20062;-76
2021/07/11 04:51:53;;;;;;;1.70;1.35;;;;;;;;;;5057707;28;20493;-75
2021/07/11 04:54:20;;;;;;;2.97;1.60;;;;;;;;;;5058400;28;20056;-75
2021/07/11 04:56:46;;;;;;;2.03;1.60;;;;;;;;;;5061028;28;20457;-76
2021/07/11 04:59:12;;;;;;;2.05;1.55;;;;;;;;;;5055868;28;20064;-77
2021/07/11 05:01:39;;;;;;;4.13;2.05;;;;;;;;;;5061694;28;20059;-78
2021/07/11 05:04:05;;;;;;;2.78;1.60;;;;;;;;;;5042720;28;20071;-77
2021/07/11 05:06:32;;;;;;;2.10;1.80;;;;;;;;;;5057169;28;20516;-77
2021/07/11 05:08:59;;;;;;;2.05;1.50;;;;;;;;;;5059937;28;20144;-77
2021/07/11 05:11:27;;;;;;;2.33;1.73;;;;;;;;;;5059913;28;20533;-76
2021/07/11 05:13:56;;;;;;;2.38;1.80;;;;;;;;;;5060899;28;20070;-77
2021/07/11 05:16:23;;;;;;;3.83;1.73;;;;;;;;;;5060923;28;20151;-77
2021/07/11 05:18:49;;;;;;;2.72;1.50;;;;;;;;;;5054693;28;20554;-78
2021/07/11 05:21:16;;;;;;;1.88;1.30;;;;;;;;;;5055836;28;20064;-76
2021/07/11 05:23:42;;;;;;;2.65;1.80;;;;;;;;;;5055804;28;20056;-76
2021/07/11 05:26:09;;;;;;;2.00;1.60;;;;;;;;;;5049927;28;20072;-77
2021/07/11 05:28:35;;;;;;;2.28;1.60;;;;;;;;;;5051626;28;20444;-78
2021/07/11 05:31:02;;;;;;;2.85;1.75;;;;;;;;;;5052714;28;20083;-76
2021/07/11 05:33:28;;;;;;;2.58;1.50;;;;;;;;;;5061805;28;20071;-76
2021/07/11 05:35:55;;;;;;;2.47;1.63;;;;;;;;;;5052410;28;20068;-76
2021/07/11 05:38:21;;;;;;;2.22;1.60;;;;;;;;;;5061768;28;20045;-75
2021/07/11 05:40:47;;;;;;;2.10;1.48;;;;;;;;;;5046585;28;20606;-76
2021/07/11 05:43:16;;;;;;;2.42;1.52;;;;;;;;;;5061816;28;20056;-75
2021/07/11 05:45:42;;;;;;;3.00;1.50;;;;;;;;;;5054672;28;20071;-75
2021/07/11 05:48:09;;;;;;;4.72;1.90;;;;;;;;;;5051734;28;20063;-76
2021/07/11 05:50:35;;;;;;;2.60;1.67;;;;;;;;;;5056854;28;20534;-76
2021/07/11 05:53:02;;;;;;;3.15;1.60;;;;;;;;;;5051088;28;20131;-78
2021/07/11 05:55:28;;;;;;;2.33;1.48;;;;;;;;;;5052227;28;20025;-79
2021/07/11 05:57:54;;;;;;;2.17;1.70;;;;;;;;;;5058669;28;20525;-79
2021/07/11 06:00:21;;;;;;;3.78;1.50;;;;;;;;;;5058797;28;20404;-79
2021/07/11 06:02:47;;;;;;;2.42;1.90;;;;;;;;;;5049228;28;20147;-78
2021/07/11 06:05:14;;;;;;;2.85;1.60;;;;;;;;;;5055666;28;20074;-79
2021/07/11 06:07:40;;;;;;;2.20;1.58;;;;;;;;;;5058531;28;20060;-79
2021/07/11 06:10:07;;;;;;;2.72;1.88;;;;;;;;;;5057335;28;20067;-79
2021/07/11 06:12:34;;;;;;;2.42;1.40;;;;;;;;;;5042525;28;20060;-79
2021/07/11 06:15:00;;;;;;;2.65;1.60;;;;;;;;;;5054297;28;20071;-79
2021/07/11 06:17:27;;;;;;;3.38;1.58;;;;;;;;;;5052242;28;20057;-78
2021/07/11 06:19:53;;;;;;;2.92;1.50;;;;;;;;;;5056644;28;20048;-79
2021/07/11 06:22:20;;;;;;;3.15;1.65;;;;;;;;;;5056315;28;20035;-79
2021/07/11 06:24:46;;;;;;;2.97;1.70;;;;;;;;;;5057944;28;20057;-78
2021/07/11 06:27:13;;;;;;;4.15;1.80;;;;;;;;;;5054967;28;20049;-78
2021/07/11 06:29:39;;;;;;;2.08;1.63;;;;;;;;;;5050135;28;20481;-79
2021/07/11 06:32:06;;;;;;;2.50;1.83;;;;;;;;;;5053146;28;20071;-79
2021/07/11 06:34:32;;;;;;;3.05;1.90;;;;;;;;;;5053614;28;20441;-78
2021/07/11 06:36:59;;;;;;;2.72;2.05;;;;;;;;;;5051988;28;20083;-79
2021/07/11 06:39:25;;;;;;;2.53;1.70;;;;;;;;;;5055538;28;20568;-79
2021/07/11 06:41:51;;;;;;;3.25;1.70;;;;;;;;;;5056587;28;20147;-79
2021/07/11 06:44:18;;;;;;;2.53;2.00;;;;;;;;;;5055715;28;20052;-79
2021/07/11 06:46:44;;;;;;;4.20;2.08;;;;;;;;;;5052584;28;20065;-80
2021/07/11 06:49:10;;;;;;;2.22;1.60;;;;;;;;;;5051976;28;20121;-78
2021/07/11 06:51:37;;;;;;;2.60;1.65;;;;;;;;;;5054243;28;20053;-79
2021/07/11 06:54:03;;;;;;;1.92;1.58;;;;;;;;;;5061553;28;20149;-79
2021/07/11 06:56:30;;;;;;;3.17;1.75;;;;;;;;;;5061419;28;20113;-79
2021/07/11 06:58:56;;;;;;;4.68;2.00;;;;;;;;;;5063307;28;20061;-79
2021/07/11 07:01:23;;;;;;;2.55;1.52;;;;;;;;;;5041651;28;20534;-79
2021/07/11 07:03:49;;;;;;;11.80;2.40;;;;;;;;;;5051115;28;20150;-79
2021/07/11 07:06:16;;;;;;;3.00;1.40;;;;;;;;;;5054866;28;20044;-78
2021/07/11 07:08:42;;;;;;;2.33;1.70;;;;;;;;;;5051376;28;20068;-79
2021/07/11 07:11:08;;;;;;;2.97;1.95;;;;;;;;;;5058438;28;20082;-76
2021/07/11 07:13:35;;;;;;;4.60;1.90;;;;;;;;;;5060217;28;20041;-76
2021/07/11 07:16:01;;;;;;;4.47;1.77;;;;;;;;;;5054278;28;20060;-77
2021/07/11 07:18:28;;;;;;;2.28;1.60;;;;;;;;;;5039799;28;20566;-76
2021/07/11 07:20:54;;;;;;;2.72;1.60;;;;;;;;;;5053874;28;20052;-77
2021/07/11 07:23:20;;;;;;;2.10;1.50;;;;;;;;;;5052465;28;20132;-76
2021/07/11 07:25:47;;;;;;;2.15;1.58;;;;;;;;;;5056918;28;20076;-76
2021/07/11 07:28:13;;;;;;;2.85;1.65;;;;;;;;;;5055970;28;20496;-77
2021/07/11 07:30:40;;;;;;;2.72;1.58;;;;;;;;;;5040003;28;20076;-77
2021/07/11 07:33:06;;;;;;;2.30;1.50;;;;;;;;;;5055848;28;20056;-77
2021/07/11 07:35:32;;;;;;;3.20;1.60;;;;;;;;;;5055405;28;20496;-78
2021/07/11 07:37:59;;;;;;;3.17;1.40;;;;;;;;;;5054369;28;20082;-76
2021/07/11 07:40:25;;;;;;;1.85;1.52;;;;;;;;;;5060697;28;20145;-77
2021/07/11 07:42:52;;;;;;;2.33;1.75;;;;;;;;;;5060745;28;20029;-76
2021/07/11 07:45:19;;;;;;;2.95;1.60;;;;;;;;;;5040428;28;20021;-76
2021/07/11 07:47:45;;;;;;;1.90;1.40;;;;;;;;;;5052195;28;20562;-77
2021/07/11 07:50:12;;;;;;;3.00;1.75;;;;;;;;;;5038411;28;20126;-76
2021/07/11 07:52:39;;;;;;;2.17;1.60;;;;;;;;;;5057942;28;20049;-77
2021/07/11 07:55:06;;;;;;;2.85;1.75;;;;;;;;;;5062130;28;20134;-77
2021/07/11 07:57:33;;;;;;;2.67;1.65;;;;;;;;;;5059275;28;20500;-77
2021/07/11 07:59:59;;;;;;;3.40;1.60;;;;;;;;;;5057204;28;20565;-77
2021/07/11 08:02:26;;;;;;;2.30;1.52;;;;;;;;;;5055977;28;20086;-76
2021/07/11 08:04:52;;;;;;;2.35;1.40;;;;;;;;;;5056437;28;20775;-78
2021/07/11 08:07:24;;;;;;;2.13;1.58;;;;;;;;;;5052782;28;20492;-77
2021/07/11 08:09:51;;;;;;;3.53;1.70;;;;;;;;;;5051799;28;20061;-75
2021/07/11 08:12:18;;;;;;;2.63;1.63;;;;;;;;;;5055790;28;20294;-76
2021/07/11 08:14:44;;;;;;;2.42;1.70;;;;;;;;;;5060480;28;20125;-77
2021/07/11 08:17:11;;;;;;;2.63;1.52;;;;;;;;;;5045443;28;20087;-76
2021/07/11 08:19:37;;;;;;;2.40;1.67;;;;;;;;;;5057803;28;20057;-77
2021/07/11 08:22:03;;;;;;;2.60;1.83;;;;;;;;;;5055567;28;20036;-77
2021/07/11 08:24:30;;;;;;;1.83;1.50;;;;;;;;;;5040357;28;20137;-77
2021/07/11 08:26:56;;;;;;;2.58;1.60;;;;;;;;;;5057113;28;20531;-76
2021/07/11 08:29:23;;;;;;;2.45;1.85;;;;;;;;;;5052137;28;20059;-77
2021/07/11 08:31:49;;;;;;;2.25;1.55;;;;;;;;;;5052607;28;20071;-78
2021/07/11 08:34:16;;;;;;;1.90;1.60;;;;;;;;;;5051903;28;20621;-77
2021/07/11 08:36:42;;;;;;;2.22;1.58;;;;;;;;;;5052442;28;20567;-78
2021/07/11 08:39:08;;;;;;;2.00;1.65;;;;;;;;;;5055391;28;20072;-78
2021/07/11 08:41:36;;;;;;;2.58;1.90;;;;;;;;;;5054064;28;20453;-77
2021/07/11 08:44:03;;;;;;;2.05;1.60;;;;;;;;;;5057114;28;20052;-77
2021/07/11 08:46:30;;;;;;;2.20;1.70;;;;;;;;;;5051536;28;20068;-76
2021/07/11 08:48:57;;;;;;;2.85;1.60;;;;;;;;;;5060033;28;20080;-76
2021/07/11 08:51:23;;;;;;;3.13;2.22;;;;;;;;;;5054868;28;20036;-75
2021/07/11 08:53:50;;;;;;;2.67;2.05;;;;;;;;;;5034630;28;20053;-75
2021/07/11 08:56:23;;;;;;;2.63;1.73;;;;;;;;;;5058466;28;20048;-77
2021/07/11 08:58:57;;;;;;;2.15;1.80;;;;;;;;;;5056309;28;20024;-76
2021/07/11 09:01:25;;;;;;;2.25;1.80;;;;;;;;;;5059002;28;20517;-76
2021/07/11 09:04:01;;;;;;;4.07;1.95;;;;;;;;;;5053857;28;20118;-77
2021/07/11 09:06:38;;;;;;;2.38;1.70;;;;;;;;;;5053642;28;20033;-77
2021/07/11 09:09:05;;;;;;;2.40;1.90;;;;;;;;;;5035467;28;20168;-77
2021/07/11 09:11:31;;;;;;;2.50;1.75;;;;;;;;;;5060248;28;20067;-77
2021/07/11 09:13:58;;;;;;;2.80;1.95;;;;;;;;;;5063070;28;20068;-77
2021/07/11 09:16:24;;;;;;;3.63;1.90;;;;;;;;;;5057053;28;20053;-76
2021/07/11 09:18:52;;;;;;;2.80;2.30;;;;;;;;;;5056814;28;20507;-76
2021/07/11 09:21:20;;;;;;;2.63;1.80;;;;;;;;;;5050848;28;20562;-78
2021/07/11 09:23:46;;;;;;;2.47;1.83;;;;;;;;;;5049210;28;20060;-75
2021/07/11 09:26:14;;;;;;;2.17;1.90;;;;;;;;;;5051980;28;20524;-75
2021/07/11 09:28:51;;;;;;;2.22;1.83;;;;;;;;;;5054610;28;20060;-75
2021/07/11 09:31:23;;;;;;;2.75;1.80;;;;;;;;;;5048339;28;20032;-78
2021/07/11 09:33:57;;;;;;;3.35;2.00;;;;;;;;;;5059626;28;20388;-75
2021/07/11 09:36:24;;;;;;;3.65;2.05;;;;;;;;;;5050719;28;20060;-75
2021/07/11 09:38:52;;;;;;;3.38;1.98;;;;;;;;;;5049145;28;20059;-76
2021/07/11 09:41:22;;;;;;;4.88;1.83;;;;;;;;;;5041397;28;20056;-76
2021/07/11 09:43:50;;;;;;;2.73;1.90;;;;;;;;;;5061420;28;20106;-74
2021/07/11 09:46:17;;;;;;;2.75;1.70;;;;;;;;;;5060415;28;20060;-76
2021/07/11 09:48:44;;;;;;;2.10;1.67;;;;;;;;;;5060674;28;20041;-75
2021/07/11 09:51:26;;;;;;;3.33;2.00;;;;;;;;;;5059395;28;20060;-76
2021/07/11 09:53:54;;;;;;;3.63;1.90;;;;;;;;;;5051106;28;20060;-75
2021/07/11 09:56:30;;;;;;;2.40;1.70;;;;;;;;;;5066026;28;20071;-75
2021/07/11 09:58:57;;;;;;;3.03;1.77;;;;;;;;;;5043959;28;20068;-77
2021/07/11 10:01:24;;;;;;;2.10;1.75;;;;;;;;;;5053341;28;20775;-76
2021/07/11 10:03:50;;;;;;;4.45;2.05;;;;;;;;;;5056310;28;20465;-75
2021/07/11 10:06:17;;;;;;;1.85;1.40;;;;;;;;;;5057282;28;20109;-75
2021/07/11 10:08:43;;;;;;;2.65;1.88;;;;;;;;;;5050485;28;20114;-76
2021/07/11 10:11:10;;;;;;;3.60;1.75;;;;;;;;;;5049353;28;20053;-74
2021/07/11 10:13:36;;;;;;;2.83;1.88;;;;;;;;;;5061364;28;20044;-75
2021/07/11 10:16:02;;;;;;;3.20;1.63;;;;;;;;;;5063099;28;20048;-76
2021/07/11 10:18:29;;;;;;;2.50;2.00;;;;;;;;;;5051994;28;20052;-76
2021/07/11 10:20:57;;;;;;;2.20;1.52;;;;;;;;;;5051843;28;20071;-75
2021/07/11 10:23:34;;;;;;;2.97;1.88;;;;;;;;;;5059934;28;20096;-74
2021/07/11 10:26:00;;;;;;;3.20;1.80;;;;;;;;;;5052907;28;20072;-75
2021/07/11 10:28:28;;;;;;;3.72;1.77;;;;;;;;;;5065542;28;20044;-75
2021/07/11 10:30:54;;;;;;;2.70;1.52;;;;;;;;;;5063774;28;20060;-76
2021/07/11 10:33:21;;;;;;;2.30;1.90;;;;;;;;;;5050087;28;20052;-75
2021/07/11 10:35:52;;;;;;;2.60;1.92;;;;;;;;;;5058844;28;20082;-75
2021/07/11 10:38:36;;;;;;;4.07;1.80;;;;;;;;;;5066317;28;20033;-76
2021/07/11 10:41:35;;;;;;;2.72;2.25;;;;;;;;;;5077603;28;20029;-76
2021/07/11 10:44:09;;;;;;;2.55;1.92;;;;;;;;;;5013110;28;20037;-76
2021/07/11 10:46:56;;;;;;;2.28;1.77;;;;;;;;;;5050624;28;20086;-75
2021/07/11 10:49:27;;;;;;;2.50;1.48;;;;;;;;;;5049089;28;20072;-76
2021/07/11 10:51:53;;;;;;;;;;;;;;;;;;5068317;28;20073;-74
2021/07/11 10:54:28;;;;;;;3.42;2.05;;;;;;;;;;5043033;28;20438;-74
2021/07/11 10:56:56;;;;;;;3.05;1.90;;;;;;;;;;5043293;28;20496;-76
2021/07/11 10:59:29;;;;;;;1.95;1.55;;;;;;;;;;5057356;28;20063;-75
2021/07/11 11:01:56;;;;;;;2.92;2.00;;;;;;;;;;5060320;28;20082;-75
2021/07/11 11:04:25;;;;;;;1.80;1.30;;;;;;;;;;5047649;28;20040;-74
2021/07/11 11:06:51;;;;;;;3.03;1.42;;;;;;;;;;5058124;28;20072;-76
2021/07/11 11:09:44;;;;;;;2.17;1.45;;;;;;;;;;5055586;28;20629;-77
2021/07/11 11:12:20;;;;;;;2.13;1.60;;;;;;;;;;5045178;28;21651;-75
2021/07/11 11:14:54;;;;;;;2.20;1.73;;;;;;;;;;5059609;28;20060;-75
2021/07/11 11:17:39;;;;;;;2.83;2.20;;;;;;;;;;5059828;28;20500;-76
2021/07/11 11:20:05;;;;;;;2.17;1.42;;;;;;;;;;5061513;28;20032;-76
2021/07/11 11:22:32;;;;;;;3.55;1.73;;;;;;;;;;5061992;28;20068;-74
2021/07/11 11:24:59;;;;;;;1.75;1.08;;;;;;;;;;5062298;28;20142;-74
2021/07/11 11:27:38;;;;;;;2.53;1.50;;;;;;;;;;5056428;28;20036;-76
2021/07/11 11:30:24;;;;;;;2.92;1.65;;;;;;;;;;5062373;28;20574;-75
2021/07/11 11:32:51;;;;;;;4.03;1.65;;;;;;;;;;5053895;28;20056;-74
2021/07/11 11:35:22;;;;;;;2.88;1.40;;;;;;;;;;5061602;28;20064;-77
2021/07/11 11:37:49;;;;;;;1.85;1.10;;;;;;;;;;5060977;28;20099;-78
2021/07/11 11:40:16;;;;;;;1.95;1.42;;;;;;;;;;5053082;28;20076;-75
2021/07/11 11:42:50;;;;;;;2.00;1.38;;;;;;;;;;5051683;28;20033;-75
2021/07/11 11:45:17;;;;;;;1.60;1.10;;;;;;;;;;5064729;28;20499;-75
2021/07/11 11:47:44;;;;;;;1.88;1.25;;;;;;;;;;5059934;28;20059;-76
2021/07/11 11:50:19;;;;;;;1.35;1.02;;;;;;;;;;5056936;28;20060;-76
2021/07/11 11:52:46;;;;;;;2.25;1.40;;;;;;;;;;5058003;28;20048;-75
2021/07/11 11:55:14;;;;;;;2.08;1.17;;;;;;;;;;5051790;28;20432;-76
2021/07/11 11:57:41;;;;;;;2.17;1.20;;;;;;;;;;5052633;28;20079;-76
2021/07/11 12:00:14;;;;;;;2.15;1.52;;;;;;;;;;5053222;28;20110;-76
2021/07/11 12:02:40;;;;;;;1.40;1.02;;;;;;;;;;5061188;28;20060;-76
2021/07/11 12:05:14;;;;;;;2.17;1.48;;;;;;;;;;5067566;28;20083;-76
2021/07/11 12:07:41;;;;;;;3.72;1.63;;;;;;;;;;5063661;28;20056;-76
2021/07/11 12:10:09;;;;;;;1.88;1.30;;;;;;;;;;5061310;28;20082;-77
2021/07/11 12:12:35;;;;;;;2.15;1.50;;;;;;;;;;5057116;28;20555;-76
2021/07/11 12:15:02;;;;;;;2.67;1.73;;;;;;;;;;5061739;28;20085;-77
2021/07/11 12:17:33;;;;;;;2.30;1.50;;;;;;;;;;5055905;28;20566;-76
2021/07/11 12:19:59;;;;;;;;;;;;;;;;;;5063375;28;20072;-76
2021/07/11 12:22:33;;;;;;;1.85;1.52;;;;;;;;;;5042267;28;19971;-75
2021/07/11 12:25:18;;;;;;;2.30;1.65;;;;;;;;;;5055931;28;20080;-76
2021/07/11 12:27:48;;;;;;;1.67;1.27;;;;;;;;;;5062056;28;20037;-76
2021/07/11 12:30:19;;;;;;;2.53;1.10;;;;;;;;;;5040811;28;20496;-76
2021/07/11 12:32:48;;;;;;;2.10;1.45;;;;;;;;;;5049921;28;20056;-76
2021/07/11 12:35:15;;;;;;;2.00;1.40;;;;;;;;;;5052598;28;20487;-77
2021/07/11 12:37:53;;;;;;;2.92;1.52;;;;;;;;;;5055173;28;20056;-76
2021/07/11 12:40:21;;;;;;;2.08;1.20;;;;;;;;;;5060831;28;20532;-75
2021/07/11 12:42:50;;;;;;;1.85;1.20;;;;;;;;;;5057865;28;20539;-77
2021/07/11 12:45:20;;;;;;;2.13;1.42;;;;;;;;;;5059940;28;20069;-75
2021/07/11 12:47:50;;;;;;;3.37;1.43;;;;;;;;;;5052635;28;20056;-76
2021/07/11 12:50:17;;;;;;;2.50;1.70;;;;;;;;;;5060809;28;20049;-75
2021/07/11 12:52:53;;;;;;;2.13;1.60;;;;;;;;;;5063706;28;20551;-78
2021/07/11 12:55:19;;;;;;;3.30;1.85;;;;;;;;;;5053481;28;20065;-75
2021/07/11 12:57:45;;;;;;;2.10;1.60;;;;;;;;;;5062911;28;20048;-76
2021/07/11 13:00:12;;;;;;;1.80;1.50;;;;;;;;;;5060180;28;20060;-76
2021/07/11 13:02:39;;;;;;;2.13;1.45;;;;;;;;;;5052445;28;20752;-77
2021/07/11 13:05:08;;;;;;;1.90;1.20;;;;;;;;;;5062360;28;20048;-75
2021/07/11 13:07:34;;;;;;;2.33;1.38;;;;;;;;;;5063344;28;20122;-75
2021/07/11 13:10:03;;;;;;;2.67;1.50;;;;;;;;;;5060710;28;20060;-76
2021/07/11 13:12:30;;;;;;;1.80;1.30;;;;;;;;;;5059504;28;20094;-75
2021/07/11 13:15:23;;;;;;;1.98;1.20;;;;;;;;;;5062216;28;20089;-75
2021/07/11 13:17:49;;;;;;;2.22;1.30;;;;;;;;;;5056902;28;20105;-76
2021/07/11 13:20:16;;;;;;;1.70;1.20;;;;;;;;;;5066171;28;20064;-76
2021/07/11 13:22:42;;;;;;;1.80;1.40;;;;;;;;;;5063618;28;20060;-76
2021/07/11 13:25:09;;;;;;;2.25;1.55;;;;;;;;;;5050662;28;20075;-75
2021/07/11 13:27:35;;;;;;;4.00;1.40;;;;;;;;;;5062548;28;20502;-76
2021/07/11 13:30:02;;;;;;;2.30;1.60;;;;;;;;;;5053742;28;20053;-75
2021/07/11 13:32:28;;;;;;;2.03;1.30;;;;;;;;;;5057507;28;20059;-75
2021/07/11 13:34:55;;;;;;;2.05;1.52;;;;;;;;;;5035704;28;20114;-76
2021/07/11 13:37:21;;;;;;;2.28;1.50;;;;;;;;;;5052626;28;20435;-76
2021/07/11 13:39:48;;;;;;;2.60;1.60;;;;;;;;;;5055901;28;20056;-76
2021/07/11 13:42:14;;;;;;;2.35;1.50;;;;;;;;;;5057650;28;20055;-76
2021/07/11 13:44:43;;;;;;;1.98;1.40;;;;;;;;;;5051859;28;20064;-76
2021/07/11 13:47:09;;;;;;;2.13;1.50;;;;;;;;;;5052223;28;20106;-75
2021/07/11 13:49:36;;;;;;;2.03;1.60;;;;;;;;;;5051060;28;20071;-74
2021/07/11 13:52:02;;;;;;;2.25;1.60;;;;;;;;;;5059906;28;20086;-75
2021/07/11 13:54:29;;;;;;;2.25;1.60;;;;;;;;;;5062631;28;20508;-76
2021/07/11 13:56:55;;;;;;;2.25;1.45;;;;;;;;;;5057789;28;20072;-76
2021/07/11 13:59:22;;;;;;;2.80;1.60;;;;;;;;;;5036776;28;20060;-76
2021/07/11 14:01:48;;;;;;;2.55;1.98;;;;;;;;;;5054430;28;20105;-76
2021/07/11 14:04:14;;;;;;;1.77;1.38;;;;;;;;;;5059869;28;20037;-75
2021/07/11 14:06:41;;;;;;;2.10;1.45;;;;;;;;;;5057568;28;20048;-76
2021/07/11 14:09:07;;;;;;;3.03;1.70;;;;;;;;;;5058187;28;20148;-75
2021/07/11 14:11:34;;;;;;;2.85;1.50;;;;;;;;;;5052302;28;20445;-75
2021/07/11 14:14:00;;;;;;;2.25;1.52;;;;;;;;;;5058330;28;20075;-74
2021/07/11 14:16:27;;;;;;;2.70;1.60;;;;;;;;;;5056043;28;20136;-75
2021/07/11 14:18:53;;;;;;;2.67;1.55;;;;;;;;;;5056507;28;20098;-76
2021/07/11 14:21:19;;;;;;;2.28;1.65;;;;;;;;;;5055115;28;20056;-77
2021/07/11 14:23:46;;;;;;;2.00;1.60;;;;;;;;;;5051859;28;20061;-76
2021/07/11 14:26:12;;;;;;;2.33;1.67;;;;;;;;;;5051629;28;20091;-75
2021/07/11 14:28:38;;;;;;;3.30;1.70;;;;;;;;;;5062084;28;20064;-75
2021/07/11 14:31:05;;;;;;;2.78;1.50;;;;;;;;;;5052230;28;20310;-76
2021/07/11 14:33:31;;;;;;;2.25;1.65;;;;;;;;;;5058781;28;20049;-78
2021/07/11 14:35:58;;;;;;;4.32;2.00;;;;;;;;;;5060188;28;20068;-77
2021/07/11 14:38:24;;;;;;;3.08;1.65;;;;;;;;;;5046363;28;20052;-77
2021/07/11 14:40:51;;;;;;;1.85;1.40;;;;;;;;;;5051077;28;20052;-77
2021/07/11 14:43:17;;;;;;;1.83;1.35;;;;;;;;;;5053404;28;20052;-75
2021/07/11 14:45:44;;;;;;;2.83;1.63;;;;;;;;;;5050574;28;20060;-75
2021/07/11 14:48:10;;;;;;;2.38;1.80;;;;;;;;;;5057802;28;20060;-75